sensor_id;sensor_type;location;lat;lon;timestamp;P1;durP1;ratioP1;P2;durP2;ratioP2
2035;SDS011;23642;42.658;23.350;2023-07-16T00:01:32;103.87;;;97.33;;
2035;SDS011;23642;42.658;23.350;2023-07-16T00:03:59;106.23;;;99.63;;
2035;SDS011;23642;42.658;23.350;2023-07-16T00:06:27;105.57;;;98.90;;
2035;SDS011;23642;42.658;23.350;2023-07-16T00:08:54;107.73;;;100.70;;
2035;SDS011;23642;42.658;23.350;2023-07-16T00:11:20;107.47;;;99.97;;
2035;SDS011;23642;42.658;23.350;2023-07-16T00:13:50;102.07;;;95.47;;
2035;SDS011;23642;42.658;23.350;2023-07-16T00:16:17;102.60;;;95.90;;
2035;SDS011;23642;42.658;23.350;2023-07-16T00:18:50;104.90;;;98.23;;
2035;SDS011;23642;42.658;23.350;2023-07-16T00:21:17;107.03;;;99.73;;
2035;SDS011;23642;42.658;23.350;2023-07-16T00:23:43;103.70;;;97.20;;
2035;SDS011;23642;42.658;23.350;2023-07-16T00:26:12;102.17;;;95.57;;
2035;SDS011;23642;42.658;23.350;2023-07-16T00:28:39;104.70;;;98.07;;
2035;SDS011;23642;42.658;23.350;2023-07-16T00:31:08;104.27;;;97.70;;
2035;SDS011;23642;42.658;23.350;2023-07-16T00:33:36;103.00;;;96.27;;
2035;SDS011;23642;42.658;23.350;2023-07-16T00:36:04;103.10;;;96.47;;
2035;SDS011;23642;42.658;23.350;2023-07-16T00:38:31;107.07;;;100.40;;
2035;SDS011;23642;42.658;23.350;2023-07-16T00:40:58;104.90;;;98.60;;
2035;SDS011;23642;42.658;23.350;2023-07-16T00:43:25;102.33;;;95.93;;
2035;SDS011;23642;42.658;23.350;2023-07-16T00:45:52;108.50;;;101.53;;
2035;SDS011;23642;42.658;23.350;2023-07-16T00:48:21;104.10;;;97.80;;
2035;SDS011;23642;42.658;23.350;2023-07-16T00:50:49;101.23;;;95.07;;
2035;SDS011;23642;42.658;23.350;2023-07-16T00:53:18;103.67;;;97.23;;
2035;SDS011;23642;42.658;23.350;2023-07-16T00:55:46;101.73;;;95.40;;
2035;SDS011;23642;42.658;23.350;2023-07-16T00:58:13;101.20;;;94.90;;
2035;SDS011;23642;42.658;23.350;2023-07-16T01:00:40;103.27;;;96.83;;
2035;SDS011;23642;42.658;23.350;2023-07-16T01:03:08;100.73;;;94.60;;
2035;SDS011;23642;42.658;23.350;2023-07-16T01:05:41;99.17;;;93.17;;
2035;SDS011;23642;42.658;23.350;2023-07-16T01:08:14;102.93;;;96.50;;
2035;SDS011;23642;42.658;23.350;2023-07-16T01:10:46;103.93;;;97.50;;
2035;SDS011;23642;42.658;23.350;2023-07-16T01:13:15;102.87;;;96.57;;
2035;SDS011;23642;42.658;23.350;2023-07-16T01:15:42;102.80;;;96.00;;
2035;SDS011;23642;42.658;23.350;2023-07-16T01:18:10;103.33;;;96.93;;
2035;SDS011;23642;42.658;23.350;2023-07-16T01:20:37;102.80;;;96.33;;
2035;SDS011;23642;42.658;23.350;2023-07-16T01:26:06;103.63;;;97.13;;
2035;SDS011;23642;42.658;23.350;2023-07-16T01:28:53;102.53;;;95.87;;
2035;SDS011;23642;42.658;23.350;2023-07-16T01:31:45;101.63;;;95.23;;
2035;SDS011;23642;42.658;23.350;2023-07-16T01:34:15;99.00;;;92.63;;
2035;SDS011;23642;42.658;23.350;2023-07-16T01:36:42;105.40;;;98.90;;
2035;SDS011;23642;42.658;23.350;2023-07-16T01:39:11;99.93;;;93.63;;
2035;SDS011;23642;42.658;23.350;2023-07-16T01:41:38;101.30;;;95.10;;
2035;SDS011;23642;42.658;23.350;2023-07-16T01:44:05;101.70;;;95.43;;
2035;SDS011;23642;42.658;23.350;2023-07-16T01:46:33;103.13;;;96.60;;
2035;SDS011;23642;42.658;23.350;2023-07-16T01:49:00;102.90;;;96.40;;
2035;SDS011;23642;42.658;23.350;2023-07-16T01:51:28;101.77;;;95.13;;
2035;SDS011;23642;42.658;23.350;2023-07-16T01:53:54;100.37;;;94.30;;
2035;SDS011;23642;42.658;23.350;2023-07-16T01:56:21;101.80;;;95.70;;
2035;SDS011;23642;42.658;23.350;2023-07-16T01:58:48;101.10;;;94.90;;
2035;SDS011;23642;42.658;23.350;2023-07-16T02:01:15;99.47;;;93.27;;
2035;SDS011;23642;42.658;23.350;2023-07-16T02:03:43;102.40;;;96.27;;
2035;SDS011;23642;42.658;23.350;2023-07-16T02:06:11;104.30;;;97.80;;
2035;SDS011;23642;42.658;23.350;2023-07-16T02:08:38;100.13;;;94.03;;
2035;SDS011;23642;42.658;23.350;2023-07-16T02:11:05;101.10;;;94.80;;
2035;SDS011;23642;42.658;23.350;2023-07-16T02:13:32;102.27;;;95.77;;
2035;SDS011;23642;42.658;23.350;2023-07-16T02:15:59;99.83;;;93.47;;
2035;SDS011;23642;42.658;23.350;2023-07-16T02:18:26;99.90;;;93.57;;
2035;SDS011;23642;42.658;23.350;2023-07-16T02:20:55;102.77;;;96.53;;
2035;SDS011;23642;42.658;23.350;2023-07-16T02:23:22;102.10;;;95.90;;
2035;SDS011;23642;42.658;23.350;2023-07-16T02:25:49;101.23;;;94.83;;
2035;SDS011;23642;42.658;23.350;2023-07-16T02:28:16;101.10;;;94.77;;
2035;SDS011;23642;42.658;23.350;2023-07-16T02:30:43;101.33;;;95.03;;
2035;SDS011;23642;42.658;23.350;2023-07-16T02:33:10;102.50;;;96.23;;
2035;SDS011;23642;42.658;23.350;2023-07-16T02:35:37;102.27;;;95.97;;
2035;SDS011;23642;42.658;23.350;2023-07-16T02:38:05;104.23;;;98.03;;
2035;SDS011;23642;42.658;23.350;2023-07-16T02:40:32;101.33;;;95.07;;
2035;SDS011;23642;42.658;23.350;2023-07-16T02:43:00;103.23;;;96.53;;
2035;SDS011;23642;42.658;23.350;2023-07-16T02:45:27;100.43;;;94.20;;
2035;SDS011;23642;42.658;23.350;2023-07-16T02:47:54;101.47;;;95.27;;
2035;SDS011;23642;42.658;23.350;2023-07-16T02:50:20;102.13;;;95.83;;
2035;SDS011;23642;42.658;23.350;2023-07-16T02:52:47;104.87;;;98.43;;
2035;SDS011;23642;42.658;23.350;2023-07-16T02:55:15;104.80;;;98.23;;
2035;SDS011;23642;42.658;23.350;2023-07-16T02:57:43;104.10;;;97.77;;
2035;SDS011;23642;42.658;23.350;2023-07-16T03:00:10;101.70;;;95.23;;
2035;SDS011;23642;42.658;23.350;2023-07-16T03:02:37;100.90;;;94.30;;
2035;SDS011;23642;42.658;23.350;2023-07-16T03:05:04;98.43;;;92.43;;
2035;SDS011;23642;42.658;23.350;2023-07-16T03:07:32;100.83;;;94.57;;
2035;SDS011;23642;42.658;23.350;2023-07-16T03:10:01;102.20;;;95.80;;
2035;SDS011;23642;42.658;23.350;2023-07-16T03:12:29;102.83;;;96.67;;
2035;SDS011;23642;42.658;23.350;2023-07-16T03:14:56;98.33;;;92.03;;
2035;SDS011;23642;42.658;23.350;2023-07-16T03:17:26;98.27;;;92.27;;
2035;SDS011;23642;42.658;23.350;2023-07-16T03:19:53;99.03;;;92.83;;
2035;SDS011;23642;42.658;23.350;2023-07-16T03:22:20;100.13;;;94.03;;
2035;SDS011;23642;42.658;23.350;2023-07-16T03:24:47;101.50;;;95.30;;
2035;SDS011;23642;42.658;23.350;2023-07-16T03:27:14;100.30;;;94.07;;
2035;SDS011;23642;42.658;23.350;2023-07-16T03:29:42;102.23;;;95.73;;
2035;SDS011;23642;42.658;23.350;2023-07-16T03:32:09;100.20;;;93.90;;
2035;SDS011;23642;42.658;23.350;2023-07-16T03:34:36;99.50;;;93.13;;
2035;SDS011;23642;42.658;23.350;2023-07-16T03:37:04;98.17;;;92.07;;
2035;SDS011;23642;42.658;23.350;2023-07-16T03:39:31;100.43;;;93.80;;
2035;SDS011;23642;42.658;23.350;2023-07-16T03:41:58;102.30;;;95.20;;
2035;SDS011;23642;42.658;23.350;2023-07-16T03:44:25;102.57;;;96.40;;
2035;SDS011;23642;42.658;23.350;2023-07-16T03:46:54;102.63;;;96.47;;
2035;SDS011;23642;42.658;23.350;2023-07-16T03:49:23;102.70;;;96.30;;
2035;SDS011;23642;42.658;23.350;2023-07-16T03:51:50;101.63;;;95.30;;
2035;SDS011;23642;42.658;23.350;2023-07-16T03:54:22;101.20;;;94.73;;
2035;SDS011;23642;42.658;23.350;2023-07-16T03:56:50;100.70;;;94.40;;
2035;SDS011;23642;42.658;23.350;2023-07-16T03:59:17;101.07;;;94.70;;
2035;SDS011;23642;42.658;23.350;2023-07-16T04:01:44;102.70;;;96.47;;
2035;SDS011;23642;42.658;23.350;2023-07-16T04:04:12;100.20;;;93.50;;
2035;SDS011;23642;42.658;23.350;2023-07-16T04:06:39;101.73;;;95.17;;
2035;SDS011;23642;42.658;23.350;2023-07-16T04:09:05;100.50;;;94.33;;
2035;SDS011;23642;42.658;23.350;2023-07-16T04:11:32;101.20;;;95.00;;
2035;SDS011;23642;42.658;23.350;2023-07-16T04:13:59;102.40;;;96.10;;
2035;SDS011;23642;42.658;23.350;2023-07-16T04:16:26;99.67;;;93.37;;
2035;SDS011;23642;42.658;23.350;2023-07-16T04:18:53;99.60;;;93.30;;
2035;SDS011;23642;42.658;23.350;2023-07-16T04:21:21;98.40;;;92.07;;
2035;SDS011;23642;42.658;23.350;2023-07-16T04:23:48;101.67;;;95.30;;
2035;SDS011;23642;42.658;23.350;2023-07-16T04:26:15;101.87;;;95.33;;
2035;SDS011;23642;42.658;23.350;2023-07-16T04:28:42;99.03;;;92.83;;
2035;SDS011;23642;42.658;23.350;2023-07-16T04:31:09;98.30;;;92.03;;
2035;SDS011;23642;42.658;23.350;2023-07-16T04:33:38;103.63;;;96.90;;
2035;SDS011;23642;42.658;23.350;2023-07-16T04:36:05;99.17;;;92.80;;
2035;SDS011;23642;42.658;23.350;2023-07-16T04:38:34;101.43;;;95.23;;
2035;SDS011;23642;42.658;23.350;2023-07-16T04:41:01;101.67;;;95.03;;
2035;SDS011;23642;42.658;23.350;2023-07-16T04:43:28;100.50;;;94.30;;
2035;SDS011;23642;42.658;23.350;2023-07-16T04:45:55;101.97;;;95.53;;
2035;SDS011;23642;42.658;23.350;2023-07-16T04:48:22;99.60;;;93.40;;
2035;SDS011;23642;42.658;23.350;2023-07-16T04:50:50;102.23;;;95.63;;
2035;SDS011;23642;42.658;23.350;2023-07-16T04:53:17;99.70;;;93.50;;
2035;SDS011;23642;42.658;23.350;2023-07-16T04:55:46;102.23;;;95.83;;
2035;SDS011;23642;42.658;23.350;2023-07-16T04:58:12;100.20;;;93.90;;
2035;SDS011;23642;42.658;23.350;2023-07-16T05:00:39;105.83;;;99.13;;
2035;SDS011;23642;42.658;23.350;2023-07-16T05:03:06;101.27;;;95.03;;
2035;SDS011;23642;42.658;23.350;2023-07-16T05:05:33;99.73;;;93.33;;
2035;SDS011;23642;42.658;23.350;2023-07-16T05:08:00;100.80;;;94.40;;
2035;SDS011;23642;42.658;23.350;2023-07-16T05:10:27;98.73;;;92.63;;
2035;SDS011;23642;42.658;23.350;2023-07-16T05:12:56;101.90;;;95.47;;
2035;SDS011;23642;42.658;23.350;2023-07-16T05:15:23;102.80;;;96.17;;
2035;SDS011;23642;42.658;23.350;2023-07-16T05:17:49;102.97;;;96.57;;
2035;SDS011;23642;42.658;23.350;2023-07-16T05:20:16;101.53;;;95.13;;
2035;SDS011;23642;42.658;23.350;2023-07-16T05:22:44;100.33;;;94.10;;
2035;SDS011;23642;42.658;23.350;2023-07-16T05:25:10;101.90;;;95.60;;
2035;SDS011;23642;42.658;23.350;2023-07-16T05:27:37;98.90;;;92.23;;
2035;SDS011;23642;42.658;23.350;2023-07-16T05:30:07;99.00;;;92.70;;
2035;SDS011;23642;42.658;23.350;2023-07-16T05:32:34;97.97;;;91.10;;
2035;SDS011;23642;42.658;23.350;2023-07-16T05:35:01;97.87;;;91.10;;
2035;SDS011;23642;42.658;23.350;2023-07-16T05:37:28;99.90;;;93.57;;
2035;SDS011;23642;42.658;23.350;2023-07-16T05:39:55;98.07;;;91.33;;
2035;SDS011;23642;42.658;23.350;2023-07-16T05:42:23;97.40;;;91.10;;
2035;SDS011;23642;42.658;23.350;2023-07-16T05:44:50;100.40;;;94.03;;
2035;SDS011;23642;42.658;23.350;2023-07-16T05:47:18;101.70;;;95.27;;
2035;SDS011;23642;42.658;23.350;2023-07-16T05:49:45;101.97;;;95.47;;
2035;SDS011;23642;42.658;23.350;2023-07-16T05:52:13;101.23;;;94.33;;
2035;SDS011;23642;42.658;23.350;2023-07-16T05:54:40;103.67;;;96.97;;
2035;SDS011;23642;42.658;23.350;2023-07-16T05:57:07;102.87;;;96.37;;
2035;SDS011;23642;42.658;23.350;2023-07-16T05:59:35;101.23;;;94.57;;
2035;SDS011;23642;42.658;23.350;2023-07-16T06:02:02;102.60;;;95.90;;
2035;SDS011;23642;42.658;23.350;2023-07-16T06:04:31;98.93;;;92.60;;
2035;SDS011;23642;42.658;23.350;2023-07-16T06:06:58;101.83;;;95.00;;
2035;SDS011;23642;42.658;23.350;2023-07-16T06:09:27;101.67;;;94.90;;
2035;SDS011;23642;42.658;23.350;2023-07-16T06:11:53;104.60;;;97.77;;
2035;SDS011;23642;42.658;23.350;2023-07-16T06:14:20;103.03;;;95.93;;
2035;SDS011;23642;42.658;23.350;2023-07-16T06:16:47;103.63;;;96.67;;
2035;SDS011;23642;42.658;23.350;2023-07-16T06:19:14;99.73;;;93.50;;
2035;SDS011;23642;42.658;23.350;2023-07-16T06:21:43;100.93;;;94.43;;
2035;SDS011;23642;42.658;23.350;2023-07-16T06:24:10;101.10;;;94.70;;
2035;SDS011;23642;42.658;23.350;2023-07-16T06:26:37;99.20;;;92.80;;
2035;SDS011;23642;42.658;23.350;2023-07-16T06:29:04;101.07;;;94.60;;
2035;SDS011;23642;42.658;23.350;2023-07-16T06:31:34;101.40;;;94.30;;
2035;SDS011;23642;42.658;23.350;2023-07-16T06:34:01;100.83;;;94.33;;
2035;SDS011;23642;42.658;23.350;2023-07-16T06:36:28;101.70;;;95.17;;
2035;SDS011;23642;42.658;23.350;2023-07-16T06:38:56;100.70;;;93.80;;
2035;SDS011;23642;42.658;23.350;2023-07-16T06:41:25;100.17;;;93.23;;
2035;SDS011;23642;42.658;23.350;2023-07-16T06:43:52;97.60;;;91.23;;
2035;SDS011;23642;42.658;23.350;2023-07-16T06:46:21;99.80;;;93.70;;
2035;SDS011;23642;42.658;23.350;2023-07-16T06:48:48;100.57;;;94.20;;
2035;SDS011;23642;42.658;23.350;2023-07-16T06:51:15;100.00;;;93.80;;
2035;SDS011;23642;42.658;23.350;2023-07-16T06:53:42;98.70;;;92.23;;
2035;SDS011;23642;42.658;23.350;2023-07-16T06:56:10;99.10;;;92.40;;
2035;SDS011;23642;42.658;23.350;2023-07-16T06:58:40;98.87;;;92.77;;
2035;SDS011;23642;42.658;23.350;2023-07-16T07:01:07;100.83;;;94.33;;
2035;SDS011;23642;42.658;23.350;2023-07-16T07:03:33;97.60;;;91.30;;
2035;SDS011;23642;42.658;23.350;2023-07-16T07:06:01;98.63;;;92.43;;
2035;SDS011;23642;42.658;23.350;2023-07-16T07:08:30;98.77;;;92.67;;
2035;SDS011;23642;42.658;23.350;2023-07-16T07:10:59;99.30;;;93.00;;
2035;SDS011;23642;42.658;23.350;2023-07-16T07:13:28;97.60;;;91.50;;
2035;SDS011;23642;42.658;23.350;2023-07-16T07:15:55;98.40;;;92.23;;
2035;SDS011;23642;42.658;23.350;2023-07-16T07:18:22;98.13;;;91.73;;
2035;SDS011;23642;42.658;23.350;2023-07-16T07:20:52;96.77;;;90.63;;
2035;SDS011;23642;42.658;23.350;2023-07-16T07:23:19;96.40;;;90.40;;
2035;SDS011;23642;42.658;23.350;2023-07-16T07:25:48;98.17;;;91.47;;
2035;SDS011;23642;42.658;23.350;2023-07-16T07:28:16;97.10;;;90.90;;
2035;SDS011;23642;42.658;23.350;2023-07-16T07:30:45;95.73;;;89.93;;
2035;SDS011;23642;42.658;23.350;2023-07-16T07:33:12;96.60;;;90.50;;
2035;SDS011;23642;42.658;23.350;2023-07-16T07:35:39;98.73;;;92.57;;
2035;SDS011;23642;42.658;23.350;2023-07-16T07:38:06;97.73;;;91.73;;
2035;SDS011;23642;42.658;23.350;2023-07-16T07:40:33;96.53;;;90.43;;
2035;SDS011;23642;42.658;23.350;2023-07-16T07:43:00;101.47;;;94.90;;
2035;SDS011;23642;42.658;23.350;2023-07-16T07:45:29;96.53;;;90.40;;
2035;SDS011;23642;42.658;23.350;2023-07-16T07:47:57;97.63;;;91.57;;
2035;SDS011;23642;42.658;23.350;2023-07-16T07:50:24;100.23;;;93.83;;
2035;SDS011;23642;42.658;23.350;2023-07-16T07:52:51;97.87;;;91.77;;
2035;SDS011;23642;42.658;23.350;2023-07-16T07:55:18;96.00;;;89.77;;
2035;SDS011;23642;42.658;23.350;2023-07-16T07:57:45;96.40;;;90.40;;
2035;SDS011;23642;42.658;23.350;2023-07-16T08:00:12;98.87;;;91.97;;
2035;SDS011;23642;42.658;23.350;2023-07-16T08:02:39;97.93;;;91.93;;
2035;SDS011;23642;42.658;23.350;2023-07-16T08:05:08;99.53;;;92.93;;
2035;SDS011;23642;42.658;23.350;2023-07-16T08:07:35;99.27;;;92.67;;
2035;SDS011;23642;42.658;23.350;2023-07-16T08:10:05;99.70;;;93.50;;
2035;SDS011;23642;42.658;23.350;2023-07-16T08:12:33;97.40;;;91.40;;
2035;SDS011;23642;42.658;23.350;2023-07-16T08:15:02;100.73;;;94.10;;
2035;SDS011;23642;42.658;23.350;2023-07-16T08:17:30;98.60;;;92.60;;
2035;SDS011;23642;42.658;23.350;2023-07-16T08:19:57;97.53;;;91.23;;
2035;SDS011;23642;42.658;23.350;2023-07-16T08:22:25;99.33;;;93.13;;
2035;SDS011;23642;42.658;23.350;2023-07-16T08:24:55;100.77;;;93.90;;
2035;SDS011;23642;42.658;23.350;2023-07-16T08:27:22;98.60;;;92.40;;
2035;SDS011;23642;42.658;23.350;2023-07-16T08:29:49;99.60;;;93.03;;
2035;SDS011;23642;42.658;23.350;2023-07-16T08:32:16;98.53;;;92.17;;
2035;SDS011;23642;42.658;23.350;2023-07-16T08:34:43;101.10;;;94.80;;
2035;SDS011;23642;42.658;23.350;2023-07-16T08:37:13;101.47;;;95.27;;
2035;SDS011;23642;42.658;23.350;2023-07-16T08:39:44;101.10;;;94.60;;
2035;SDS011;23642;42.658;23.350;2023-07-16T08:42:11;100.23;;;93.50;;
2035;SDS011;23642;42.658;23.350;2023-07-16T08:44:38;101.53;;;95.10;;
2035;SDS011;23642;42.658;23.350;2023-07-16T08:47:15;100.17;;;93.97;;
2035;SDS011;23642;42.658;23.350;2023-07-16T08:49:42;101.17;;;94.87;;
2035;SDS011;23642;42.658;23.350;2023-07-16T08:52:22;101.90;;;95.50;;
2035;SDS011;23642;42.658;23.350;2023-07-16T08:54:51;102.03;;;95.83;;
2035;SDS011;23642;42.658;23.350;2023-07-16T08:57:20;103.13;;;96.10;;
2035;SDS011;23642;42.658;23.350;2023-07-16T08:59:47;99.57;;;93.47;;
2035;SDS011;23642;42.658;23.350;2023-07-16T09:02:15;100.03;;;93.93;;
2035;SDS011;23642;42.658;23.350;2023-07-16T09:04:45;102.80;;;96.30;;
2035;SDS011;23642;42.658;23.350;2023-07-16T09:07:13;101.03;;;94.13;;
2035;SDS011;23642;42.658;23.350;2023-07-16T09:09:43;99.57;;;93.10;;
2035;SDS011;23642;42.658;23.350;2023-07-16T09:12:12;100.13;;;93.70;;
2035;SDS011;23642;42.658;23.350;2023-07-16T09:14:40;102.13;;;95.50;;
2035;SDS011;23642;42.658;23.350;2023-07-16T09:17:12;102.00;;;95.50;;
2035;SDS011;23642;42.658;23.350;2023-07-16T09:19:39;97.87;;;91.87;;
2035;SDS011;23642;42.658;23.350;2023-07-16T09:22:06;100.47;;;93.67;;
2035;SDS011;23642;42.658;23.350;2023-07-16T09:24:35;100.50;;;93.87;;
2035;SDS011;23642;42.658;23.350;2023-07-16T09:27:02;99.73;;;93.50;;
2035;SDS011;23642;42.658;23.350;2023-07-16T09:29:34;101.50;;;94.43;;
2035;SDS011;23642;42.658;23.350;2023-07-16T09:32:04;100.27;;;94.07;;
2035;SDS011;23642;42.658;23.350;2023-07-16T09:34:33;100.60;;;94.10;;
2035;SDS011;23642;42.658;23.350;2023-07-16T09:37:00;102.13;;;95.80;;
2035;SDS011;23642;42.658;23.350;2023-07-16T09:39:28;100.43;;;94.33;;
2035;SDS011;23642;42.658;23.350;2023-07-16T09:41:58;102.67;;;96.07;;
2035;SDS011;23642;42.658;23.350;2023-07-16T09:44:26;98.80;;;92.50;;
2035;SDS011;23642;42.658;23.350;2023-07-16T09:46:54;103.57;;;97.17;;
2035;SDS011;23642;42.658;23.350;2023-07-16T09:49:21;102.13;;;95.47;;
2035;SDS011;23642;42.658;23.350;2023-07-16T09:51:48;99.07;;;92.43;;
2035;SDS011;23642;42.658;23.350;2023-07-16T09:54:21;104.50;;;98.10;;
2035;SDS011;23642;42.658;23.350;2023-07-16T09:56:52;101.27;;;94.67;;
2035;SDS011;23642;42.658;23.350;2023-07-16T09:59:24;102.37;;;95.73;;
2035;SDS011;23642;42.658;23.350;2023-07-16T10:01:54;104.70;;;98.30;;
2035;SDS011;23642;42.658;23.350;2023-07-16T10:04:24;104.43;;;98.03;;
2035;SDS011;23642;42.658;23.350;2023-07-16T10:06:52;101.70;;;95.17;;
2035;SDS011;23642;42.658;23.350;2023-07-16T10:09:36;100.50;;;93.67;;
2035;SDS011;23642;42.658;23.350;2023-07-16T10:12:11;101.73;;;95.23;;
2035;SDS011;23642;42.658;23.350;2023-07-16T10:14:42;101.47;;;94.70;;
2035;SDS011;23642;42.658;23.350;2023-07-16T10:17:15;102.50;;;95.93;;
2035;SDS011;23642;42.658;23.350;2023-07-16T10:19:54;102.50;;;96.17;;
2035;SDS011;23642;42.658;23.350;2023-07-16T10:22:38;102.17;;;95.87;;
2035;SDS011;23642;42.658;23.350;2023-07-16T10:25:08;103.37;;;96.57;;
2035;SDS011;23642;42.658;23.350;2023-07-16T10:27:35;102.77;;;95.97;;
2035;SDS011;23642;42.658;23.350;2023-07-16T10:30:04;104.67;;;97.63;;
2035;SDS011;23642;42.658;23.350;2023-07-16T10:32:33;103.57;;;97.10;;
2035;SDS011;23642;42.658;23.350;2023-07-16T10:35:00;103.03;;;96.13;;
2035;SDS011;23642;42.658;23.350;2023-07-16T10:37:28;103.83;;;97.23;;
2035;SDS011;23642;42.658;23.350;2023-07-16T10:39:56;102.40;;;95.57;;
2035;SDS011;23642;42.658;23.350;2023-07-16T10:42:24;105.27;;;98.67;;
2035;SDS011;23642;42.658;23.350;2023-07-16T10:44:57;104.27;;;97.53;;
2035;SDS011;23642;42.658;23.350;2023-07-16T10:47:28;103.80;;;97.30;;
2035;SDS011;23642;42.658;23.350;2023-07-16T10:49:58;105.83;;;98.83;;
2035;SDS011;23642;42.658;23.350;2023-07-16T10:52:26;106.03;;;99.13;;
2035;SDS011;23642;42.658;23.350;2023-07-16T10:54:53;104.87;;;98.30;;
2035;SDS011;23642;42.658;23.350;2023-07-16T10:57:20;100.80;;;94.57;;
2035;SDS011;23642;42.658;23.350;2023-07-16T10:59:51;104.87;;;98.00;;
2035;SDS011;23642;42.658;23.350;2023-07-16T11:02:18;102.63;;;96.00;;
2035;SDS011;23642;42.658;23.350;2023-07-16T11:04:47;103.87;;;97.40;;
2035;SDS011;23642;42.658;23.350;2023-07-16T11:07:16;105.10;;;98.30;;
2035;SDS011;23642;42.658;23.350;2023-07-16T11:09:44;104.07;;;96.83;;
2035;SDS011;23642;42.658;23.350;2023-07-16T11:12:14;104.00;;;97.60;;
2035;SDS011;23642;42.658;23.350;2023-07-16T11:14:44;102.70;;;96.00;;
2035;SDS011;23642;42.658;23.350;2023-07-16T11:17:15;102.87;;;95.87;;
2035;SDS011;23642;42.658;23.350;2023-07-16T11:19:44;104.40;;;97.33;;
2035;SDS011;23642;42.658;23.350;2023-07-16T11:22:13;103.27;;;96.80;;
2035;SDS011;23642;42.658;23.350;2023-07-16T11:24:42;102.83;;;96.43;;
2035;SDS011;23642;42.658;23.350;2023-07-16T11:27:13;100.43;;;94.10;;
2035;SDS011;23642;42.658;23.350;2023-07-16T11:29:44;103.50;;;97.10;;
2035;SDS011;23642;42.658;23.350;2023-07-16T11:32:13;104.67;;;98.07;;
2035;SDS011;23642;42.658;23.350;2023-07-16T11:37:24;103.10;;;96.80;;
2035;SDS011;23642;42.658;23.350;2023-07-16T11:39:56;102.87;;;96.13;;
2035;SDS011;23642;42.658;23.350;2023-07-16T11:42:24;101.90;;;95.50;;
2035;SDS011;23642;42.658;23.350;2023-07-16T11:45:01;103.83;;;96.93;;
2035;SDS011;23642;42.658;23.350;2023-07-16T11:47:30;106.00;;;98.67;;
2035;SDS011;23642;42.658;23.350;2023-07-16T11:50:00;104.83;;;98.33;;
2035;SDS011;23642;42.658;23.350;2023-07-16T11:52:27;107.93;;;101.23;;
2035;SDS011;23642;42.658;23.350;2023-07-16T11:54:58;105.30;;;98.70;;
2035;SDS011;23642;42.658;23.350;2023-07-16T11:57:25;105.70;;;99.20;;
2035;SDS011;23642;42.658;23.350;2023-07-16T11:59:53;105.70;;;99.00;;
2035;SDS011;23642;42.658;23.350;2023-07-16T12:02:22;104.00;;;97.30;;
2035;SDS011;23642;42.658;23.350;2023-07-16T12:04:52;106.10;;;99.40;;
2035;SDS011;23642;42.658;23.350;2023-07-16T12:09:58;103.60;;;97.00;;
2035;SDS011;23642;42.658;23.350;2023-07-16T12:12:26;104.20;;;97.80;;
2035;SDS011;23642;42.658;23.350;2023-07-16T12:14:56;105.10;;;98.33;;
2035;SDS011;23642;42.658;23.350;2023-07-16T12:17:25;105.77;;;99.10;;
2035;SDS011;23642;42.658;23.350;2023-07-16T12:19:56;105.80;;;99.13;;
2035;SDS011;23642;42.658;23.350;2023-07-16T12:22:22;104.93;;;98.10;;
2035;SDS011;23642;42.658;23.350;2023-07-16T12:24:50;105.67;;;99.00;;
2035;SDS011;23642;42.658;23.350;2023-07-16T12:27:18;104.00;;;97.30;;
2035;SDS011;23642;42.658;23.350;2023-07-16T12:29:46;103.07;;;96.50;;
2035;SDS011;23642;42.658;23.350;2023-07-16T12:32:13;105.50;;;98.80;;
2035;SDS011;23642;42.658;23.350;2023-07-16T12:34:40;104.80;;;98.20;;
2035;SDS011;23642;42.658;23.350;2023-07-16T12:37:07;104.30;;;97.53;;
2035;SDS011;23642;42.658;23.350;2023-07-16T12:39:35;103.33;;;96.73;;
2035;SDS011;23642;42.658;23.350;2023-07-16T12:42:02;105.40;;;98.63;;
2035;SDS011;23642;42.658;23.350;2023-07-16T12:44:30;104.67;;;98.17;;
2035;SDS011;23642;42.658;23.350;2023-07-16T12:46:57;105.53;;;98.67;;
2035;SDS011;23642;42.658;23.350;2023-07-16T12:49:24;105.87;;;99.07;;
2035;SDS011;23642;42.658;23.350;2023-07-16T12:51:51;108.47;;;101.33;;
2035;SDS011;23642;42.658;23.350;2023-07-16T12:54:19;104.73;;;98.23;;
2035;SDS011;23642;42.658;23.350;2023-07-16T12:56:46;107.57;;;100.67;;
2035;SDS011;23642;42.658;23.350;2023-07-16T12:59:13;103.73;;;97.30;;
2035;SDS011;23642;42.658;23.350;2023-07-16T13:01:41;108.37;;;101.30;;
2035;SDS011;23642;42.658;23.350;2023-07-16T13:04:08;108.50;;;101.50;;
2035;SDS011;23642;42.658;23.350;2023-07-16T13:06:35;105.60;;;98.90;;
2035;SDS011;23642;42.658;23.350;2023-07-16T13:09:02;108.47;;;101.87;;
2035;SDS011;23642;42.658;23.350;2023-07-16T13:11:30;107.83;;;101.03;;
2035;SDS011;23642;42.658;23.350;2023-07-16T13:13:57;105.93;;;99.13;;
2035;SDS011;23642;42.658;23.350;2023-07-16T13:16:24;107.60;;;100.83;;
2035;SDS011;23642;42.658;23.350;2023-07-16T13:18:53;106.47;;;99.60;;
2035;SDS011;23642;42.658;23.350;2023-07-16T13:21:20;106.43;;;99.73;;
2035;SDS011;23642;42.658;23.350;2023-07-16T13:23:47;107.43;;;100.80;;
2035;SDS011;23642;42.658;23.350;2023-07-16T13:26:13;108.37;;;101.37;;
2035;SDS011;23642;42.658;23.350;2023-07-16T13:28:40;107.67;;;100.97;;
2035;SDS011;23642;42.658;23.350;2023-07-16T13:31:07;109.67;;;102.93;;
2035;SDS011;23642;42.658;23.350;2023-07-16T13:33:34;107.77;;;101.10;;
2035;SDS011;23642;42.658;23.350;2023-07-16T13:36:03;106.40;;;99.60;;
2035;SDS011;23642;42.658;23.350;2023-07-16T13:38:31;110.43;;;103.43;;
2035;SDS011;23642;42.658;23.350;2023-07-16T13:40:58;106.80;;;100.10;;
2035;SDS011;23642;42.658;23.350;2023-07-16T13:43:25;103.80;;;97.40;;
2035;SDS011;23642;42.658;23.350;2023-07-16T13:45:52;107.43;;;101.00;;
2035;SDS011;23642;42.658;23.350;2023-07-16T13:48:22;107.93;;;101.43;;
2035;SDS011;23642;42.658;23.350;2023-07-16T13:50:48;107.30;;;100.70;;
2035;SDS011;23642;42.658;23.350;2023-07-16T13:53:17;109.63;;;102.70;;
2035;SDS011;23642;42.658;23.350;2023-07-16T13:55:44;107.57;;;100.73;;
2035;SDS011;23642;42.658;23.350;2023-07-16T13:58:11;107.53;;;101.03;;
2035;SDS011;23642;42.658;23.350;2023-07-16T14:00:39;105.77;;;99.27;;
2035;SDS011;23642;42.658;23.350;2023-07-16T14:03:06;108.90;;;101.90;;
2035;SDS011;23642;42.658;23.350;2023-07-16T14:05:33;107.10;;;100.60;;
2035;SDS011;23642;42.658;23.350;2023-07-16T14:08:03;108.37;;;101.17;;
2035;SDS011;23642;42.658;23.350;2023-07-16T14:10:32;109.53;;;102.80;;
2035;SDS011;23642;42.658;23.350;2023-07-16T14:13:01;107.10;;;100.33;;
2035;SDS011;23642;42.658;23.350;2023-07-16T14:15:28;107.10;;;100.60;;
2035;SDS011;23642;42.658;23.350;2023-07-16T14:17:55;105.10;;;98.30;;
2035;SDS011;23642;42.658;23.350;2023-07-16T14:20:23;108.63;;;101.83;;
2035;SDS011;23642;42.658;23.350;2023-07-16T14:22:50;108.07;;;100.87;;
2035;SDS011;23642;42.658;23.350;2023-07-16T14:25:20;108.23;;;101.63;;